sensor_id;sensor_type;location;lat;lon;timestamp;P1;durP1;ratioP1;P2;durP2;ratioP2
27367;SDS011;14839;48.106;11.618;2023-08-21T04:01:39;7.23;;;5.50;;
27367;SDS011;14839;48.106;11.618;2023-08-21T04:04:04;7.27;;;5.27;;
27367;SDS011;14839;48.106;11.618;2023-08-21T04:06:30;7.57;;;5.30;;
27367;SDS011;14839;48.106;11.618;2023-08-21T04:08:55;10.47;;;6.47;;
27367;SDS011;14839;48.106;11.618;2023-08-21T04:11:21;6.87;;;5.50;;
27367;SDS011;14839;48.106;11.618;2023-08-21T04:13:46;6.60;;;5.07;;
27367;SDS011;14839;48.106;11.618;2023-08-21T04:16:12;9.30;;;5.80;;
27367;SDS011;14839;48.106;11.618;2023-08-21T04:18:38;7.40;;;6.13;;
27367;SDS011;14839;48.106;11.618;2023-08-21T04:21:04;8.97;;;5.17;;
27367;SDS011;14839;48.106;11.618;2023-08-21T04:23:29;7.80;;;5.87;;
27367;SDS011;14839;48.106;11.618;2023-08-21T04:26:02;8.57;;;5.43;;
27367;SDS011;14839;48.106;11.618;2023-08-21T04:28:29;8.50;;;5.33;;
27367;SDS011;14839;48.106;11.618;2023-08-21T04:30:55;11.13;;;5.87;;
27367;SDS011;14839;48.106;11.618;2023-08-21T04:33:23;7.93;;;5.83;;
27367;SDS011;14839;48.106;11.618;2023-08-21T04:35:49;6.70;;;5.40;;
27367;SDS011;14839;48.106;11.618;2023-08-21T04:38:15;7.00;;;5.57;;
27367;SDS011;14839;48.106;11.618;2023-08-21T04:40:41;7.53;;;5.87;;
27367;SDS011;14839;48.106;11.618;2023-08-21T04:43:06;5.80;;;4.77;;
27367;SDS011;14839;48.106;11.618;2023-08-21T04:45:32;8.73;;;5.63;;
27367;SDS011;14839;48.106;11.618;2023-08-21T04:47:58;9.67;;;5.70;;
27367;SDS011;14839;48.106;11.618;2023-08-21T04:50:23;8.23;;;5.27;;
27367;SDS011;14839;48.106;11.618;2023-08-21T04:52:49;9.27;;;5.83;;
27367;SDS011;14839;48.106;11.618;2023-08-21T04:55:15;9.83;;;6.13;;
27367;SDS011;14839;48.106;11.618;2023-08-21T04:57:41;8.03;;;5.70;;
27367;SDS011;14839;48.106;11.618;2023-08-21T05:00:07;10.27;;;5.40;;
27367;SDS011;14839;48.106;11.618;2023-08-21T05:02:33;13.40;;;5.90;;
27367;SDS011;14839;48.106;11.618;2023-08-21T05:04:59;7.93;;;5.47;;
27367;SDS011;14839;48.106;11.618;2023-08-21T05:07:25;6.73;;;4.97;;
27367;SDS011;14839;48.106;11.618;2023-08-21T05:09:52;5.95;;;4.93;;
27367;SDS011;14839;48.106;11.618;2023-08-21T05:12:17;10.68;;;4.40;;
27367;SDS011;14839;48.106;11.618;2023-08-21T05:14:43;9.73;;;4.97;;
27367;SDS011;14839;48.106;11.618;2023-08-21T05:17:08;6.22;;;4.88;;
27367;SDS011;14839;48.106;11.618;2023-08-21T05:19:34;8.00;;;4.57;;
27367;SDS011;14839;48.106;11.618;2023-08-21T05:21:59;4.93;;;4.18;;
27367;SDS011;14839;48.106;11.618;2023-08-21T05:24:25;6.28;;;4.22;;
27367;SDS011;14839;48.106;11.618;2023-08-21T05:26:51;8.65;;;4.45;;
27367;SDS011;14839;48.106;11.618;2023-08-21T05:29:16;6.85;;;4.10;;
27367;SDS011;14839;48.106;11.618;2023-08-21T05:31:42;4.63;;;3.60;;
27367;SDS011;14839;48.106;11.618;2023-08-21T05:34:07;4.22;;;3.50;;
27367;SDS011;14839;48.106;11.618;2023-08-21T05:36:33;6.60;;;3.70;;
27367;SDS011;14839;48.106;11.618;2023-08-21T05:39:01;4.18;;;3.78;;
27367;SDS011;14839;48.106;11.618;2023-08-21T05:41:30;4.65;;;4.22;;
27367;SDS011;14839;48.106;11.618;2023-08-21T05:43:56;7.82;;;3.90;;
27367;SDS011;14839;48.106;11.618;2023-08-21T05:46:22;3.85;;;3.38;;
27367;SDS011;14839;48.106;11.618;2023-08-21T05:48:48;5.53;;;3.50;;
27367;SDS011;14839;48.106;11.618;2023-08-21T05:51:13;4.20;;;3.60;;
27367;SDS011;14839;48.106;11.618;2023-08-21T05:53:39;5.32;;;3.67;;
27367;SDS011;14839;48.106;11.618;2023-08-21T05:56:04;5.93;;;3.65;;
27367;SDS011;14839;48.106;11.618;2023-08-21T05:58:30;4.10;;;3.45;;
27367;SDS011;14839;48.106;11.618;2023-08-21T06:00:57;5.25;;;3.78;;
27367;SDS011;14839;48.106;11.618;2023-08-21T06:03:23;6.07;;;3.70;;
27367;SDS011;14839;48.106;11.618;2023-08-21T06:05:49;4.00;;;3.60;;
27367;SDS011;14839;48.106;11.618;2023-08-21T06:08:14;3.95;;;3.47;;
27367;SDS011;14839;48.106;11.618;2023-08-21T06:10:40;5.82;;;3.33;;
27367;SDS011;14839;48.106;11.618;2023-08-21T06:13:06;3.28;;;2.97;;
27367;SDS011;14839;48.106;11.618;2023-08-21T06:15:31;3.22;;;2.92;;
27367;SDS011;14839;48.106;11.618;2023-08-21T06:17:58;4.85;;;3.58;;
27367;SDS011;14839;48.106;11.618;2023-08-21T06:20:24;6.32;;;3.53;;
27367;SDS011;14839;48.106;11.618;2023-08-21T06:22:49;3.63;;;3.28;;
27367;SDS011;14839;48.106;11.618;2023-08-21T06:25:15;4.30;;;3.53;;
27367;SDS011;14839;48.106;11.618;2023-08-21T06:27:40;6.40;;;3.80;;
27367;SDS011;14839;48.106;11.618;2023-08-21T06:30:06;3.92;;;3.53;;
27367;SDS011;14839;48.106;11.618;2023-08-21T06:32:32;4.78;;;3.70;;
27367;SDS011;14839;48.106;11.618;2023-08-21T06:34:58;5.10;;;3.95;;
27367;SDS011;14839;48.106;11.618;2023-08-21T06:37:24;4.00;;;3.58;;
27367;SDS011;14839;48.106;11.618;2023-08-21T06:39:50;5.00;;;3.47;;
27367;SDS011;14839;48.106;11.618;2023-08-21T06:42:15;6.03;;;3.22;;
27367;SDS011;14839;48.106;11.618;2023-08-21T06:44:41;3.92;;;3.63;;
27367;SDS011;14839;48.106;11.618;2023-08-21T06:47:07;3.63;;;3.25;;
27367;SDS011;14839;48.106;11.618;2023-08-21T06:49:32;4.22;;;3.30;;
27367;SDS011;14839;48.106;11.618;2023-08-21T06:51:58;6.75;;;3.33;;
27367;SDS011;14839;48.106;11.618;2023-08-21T06:54:24;3.83;;;3.42;;
27367;SDS011;14839;48.106;11.618;2023-08-21T06:56:49;6.10;;;3.50;;
27367;SDS011;14839;48.106;11.618;2023-08-21T06:59:15;6.60;;;3.58;;
27367;SDS011;14839;48.106;11.618;2023-08-21T07:01:40;4.10;;;3.70;;
27367;SDS011;14839;48.106;11.618;2023-08-21T07:04:06;4.10;;;3.53;;
27367;SDS011;14839;48.106;11.618;2023-08-21T07:06:32;4.47;;;3.70;;
27367;SDS011;14839;48.106;11.618;2023-08-21T07:08:57;3.63;;;3.33;;
27367;SDS011;14839;48.106;11.618;2023-08-21T07:11:23;4.75;;;3.45;;
27367;SDS011;14839;48.106;11.618;2023-08-21T07:13:49;5.55;;;3.58;;
27367;SDS011;14839;48.106;11.618;2023-08-21T07:16:14;4.28;;;3.88;;
27367;SDS011;14839;48.106;11.618;2023-08-21T07:18:40;6.18;;;4.10;;
27367;SDS011;14839;48.106;11.618;2023-08-21T07:21:06;4.63;;;3.85;;
27367;SDS011;14839;48.106;11.618;2023-08-21T07:23:31;5.45;;;3.92;;
27367;SDS011;14839;48.106;11.618;2023-08-21T07:25:58;4.38;;;3.88;;
27367;SDS011;14839;48.106;11.618;2023-08-21T07:28:24;4.78;;;3.38;;
27367;SDS011;14839;48.106;11.618;2023-08-21T07:30:56;6.90;;;3.85;;
27367;SDS011;14839;48.106;11.618;2023-08-21T07:33:25;7.25;;;3.85;;
27367;SDS011;14839;48.106;11.618;2023-08-21T07:35:58;4.47;;;3.30;;
27367;SDS011;14839;48.106;11.618;2023-08-21T07:38:28;7.20;;;3.55;;
27367;SDS011;14839;48.106;11.618;2023-08-21T07:41:07;5.53;;;3.83;;
27367;SDS011;14839;48.106;11.618;2023-08-21T07:43:35;4.38;;;3.53;;
27367;SDS011;14839;48.106;11.618;2023-08-21T07:46:09;4.13;;;3.75;;
27367;SDS011;14839;48.106;11.618;2023-08-21T07:48:40;6.50;;;3.95;;
27367;SDS011;14839;48.106;11.618;2023-08-21T07:51:06;7.47;;;4.15;;
27367;SDS011;14839;48.106;11.618;2023-08-21T07:53:32;4.25;;;3.60;;
27367;SDS011;14839;48.106;11.618;2023-08-21T07:55:59;4.13;;;3.72;;
27367;SDS011;14839;48.106;11.618;2023-08-21T07:58:25;4.32;;;3.50;;
27367;SDS011;14839;48.106;11.618;2023-08-21T08:00:51;5.63;;;3.72;;
27367;SDS011;14839;48.106;11.618;2023-08-21T08:03:16;5.10;;;3.45;;
27367;SDS011;14839;48.106;11.618;2023-08-21T08:05:42;10.77;;;4.32;;
27367;SDS011;14839;48.106;11.618;2023-08-21T08:08:08;5.78;;;4.13;;
27367;SDS011;14839;48.106;11.618;2023-08-21T08:10:37;7.57;;;4.07;;
27367;SDS011;14839;48.106;11.618;2023-08-21T08:13:04;8.48;;;3.97;;
27367;SDS011;14839;48.106;11.618;2023-08-21T08:15:29;4.68;;;4.25;;
27367;SDS011;14839;48.106;11.618;2023-08-21T08:17:56;6.25;;;3.90;;
27367;SDS011;14839;48.106;11.618;2023-08-21T08:20:22;5.57;;;3.60;;
27367;SDS011;14839;48.106;11.618;2023-08-21T08:22:48;7.88;;;3.95;;
27367;SDS011;14839;48.106;11.618;2023-08-21T08:25:14;7.32;;;3.65;;
27367;SDS011;14839;48.106;11.618;2023-08-21T08:27:39;5.45;;;4.10;;
27367;SDS011;14839;48.106;11.618;2023-08-21T08:30:05;7.18;;;4.13;;
27367;SDS011;14839;48.106;11.618;2023-08-21T08:32:31;5.60;;;3.95;;
27367;SDS011;14839;48.106;11.618;2023-08-21T08:34:57;5.47;;;4.18;;
27367;SDS011;14839;48.106;11.618;2023-08-21T08:37:23;4.85;;;3.60;;
27367;SDS011;14839;48.106;11.618;2023-08-21T08:39:48;4.20;;;3.80;;
27367;SDS011;14839;48.106;11.618;2023-08-21T08:42:14;5.25;;;4.07;;
27367;SDS011;14839;48.106;11.618;2023-08-21T08:44:41;4.28;;;3.58;;
27367;SDS011;14839;48.106;11.618;2023-08-21T08:47:08;6.80;;;4.15;;
27367;SDS011;14839;48.106;11.618;2023-08-21T08:49:35;4.38;;;3.97;;
27367;SDS011;14839;48.106;11.618;2023-08-21T08:52:02;4.57;;;3.72;;
27367;SDS011;14839;48.106;11.618;2023-08-21T08:54:28;4.32;;;3.85;;
27367;SDS011;14839;48.106;11.618;2023-08-21T08:56:55;5.50;;;4.50;;
27367;SDS011;14839;48.106;11.618;2023-08-21T08:59:21;9.02;;;4.40;;
27367;SDS011;14839;48.106;11.618;2023-08-21T09:01:47;5.38;;;3.90;;
27367;SDS011;14839;48.106;11.618;2023-08-21T09:04:13;4.20;;;3.78;;
27367;SDS011;14839;48.106;11.618;2023-08-21T09:06:39;4.47;;;3.65;;
27367;SDS011;14839;48.106;11.618;2023-08-21T09:09:05;3.85;;;3.47;;
27367;SDS011;14839;48.106;11.618;2023-08-21T09:11:33;6.40;;;4.07;;
27367;SDS011;14839;48.106;11.618;2023-08-21T09:13:59;4.00;;;3.60;;
27367;SDS011;14839;48.106;11.618;2023-08-21T09:16:25;7.13;;;3.58;;
27367;SDS011;14839;48.106;11.618;2023-08-21T09:18:53;4.65;;;3.67;;
27367;SDS011;14839;48.106;11.618;2023-08-21T09:21:21;4.45;;;4.05;;
27367;SDS011;14839;48.106;11.618;2023-08-21T09:23:50;4.78;;;4.28;;
27367;SDS011;14839;48.106;11.618;2023-08-21T09:26:21;5.45;;;4.32;;
27367;SDS011;14839;48.106;11.618;2023-08-21T09:28:50;8.80;;;3.88;;
27367;SDS011;14839;48.106;11.618;2023-08-21T09:31:24;4.78;;;4.28;;
27367;SDS011;14839;48.106;11.618;2023-08-21T09:33:55;4.18;;;3.78;;
27367;SDS011;14839;48.106;11.618;2023-08-21T09:36:22;7.13;;;4.05;;
27367;SDS011;14839;48.106;11.618;2023-08-21T09:38:50;4.85;;;3.72;;
27367;SDS011;14839;48.106;11.618;2023-08-21T09:41:18;6.65;;;3.55;;
27367;SDS011;14839;48.106;11.618;2023-08-21T09:43:44;9.13;;;3.60;;
27367;SDS011;14839;48.106;11.618;2023-08-21T09:46:10;4.20;;;3.80;;
27367;SDS011;14839;48.106;11.618;2023-08-21T09:48:48;8.25;;;3.97;;
27367;SDS011;14839;48.106;11.618;2023-08-21T09:51:16;4.65;;;4.18;;
27367;SDS011;14839;48.106;11.618;2023-08-21T09:53:42;5.45;;;3.97;;
27367;SDS011;14839;48.106;11.618;2023-08-21T09:56:08;3.85;;;3.45;;
27367;SDS011;14839;48.106;11.618;2023-08-21T09:58:36;4.43;;;3.92;;
27367;SDS011;14839;48.106;11.618;2023-08-21T10:01:04;3.60;;;3.30;;
27367;SDS011;14839;48.106;11.618;2023-08-21T10:03:39;3.83;;;3.38;;
27367;SDS011;14839;48.106;11.618;2023-08-21T10:06:06;5.10;;;3.45;;
27367;SDS011;14839;48.106;11.618;2023-08-21T10:08:36;4.07;;;3.45;;
27367;SDS011;14839;48.106;11.618;2023-08-21T10:11:09;5.57;;;3.92;;
27367;SDS011;14839;48.106;11.618;2023-08-21T10:13:36;4.30;;;3.47;;
27367;SDS011;14839;48.106;11.618;2023-08-21T10:16:03;4.70;;;3.70;;
27367;SDS011;14839;48.106;11.618;2023-08-21T10:18:31;3.60;;;3.30;;
27367;SDS011;14839;48.106;11.618;2023-08-21T10:21:14;3.90;;;3.50;;
27367;SDS011;14839;48.106;11.618;2023-08-21T10:23:42;4.47;;;3.13;;
27367;SDS011;14839;48.106;11.618;2023-08-21T10:26:11;4.18;;;3.75;;
27367;SDS011;14839;48.106;11.618;2023-08-21T10:31:28;5.65;;;3.80;;
27367;SDS011;14839;48.106;11.618;2023-08-21T10:34:02;4.65;;;3.63;;
27367;SDS011;14839;48.106;11.618;2023-08-21T10:39:17;4.13;;;3.72;;
27367;SDS011;14839;48.106;11.618;2023-08-21T10:44:46;6.20;;;3.63;;
27367;SDS011;14839;48.106;11.618;2023-08-21T10:49:53;3.45;;;3.15;;
27367;SDS011;14839;48.106;11.618;2023-08-21T10:54:55;3.60;;;3.25;;
27367;SDS011;14839;48.106;11.618;2023-08-21T10:57:22;6.35;;;2.90;;
27367;SDS011;14839;48.106;11.618;2023-08-21T10:59:49;4.80;;;2.80;;
27367;SDS011;14839;48.106;11.618;2023-08-21T11:02:23;5.22;;;3.30;;
27367;SDS011;14839;48.106;11.618;2023-08-21T11:04:50;4.03;;;3.53;;
27367;SDS011;14839;48.106;11.618;2023-08-21T11:07:16;3.47;;;3.17;;
27367;SDS011;14839;48.106;11.618;2023-08-21T11:09:42;4.38;;;3.20;;
27367;SDS011;14839;48.106;11.618;2023-08-21T11:12:08;3.58;;;3.08;;
27367;SDS011;14839;48.106;11.618;2023-08-21T11:14:38;3.55;;;3.20;;
27367;SDS011;14839;48.106;11.618;2023-08-21T11:17:04;3.58;;;3.03;;
27367;SDS011;14839;48.106;11.618;2023-08-21T11:19:31;3.17;;;2.88;;
27367;SDS011;14839;48.106;11.618;2023-08-21T11:22:00;3.80;;;3.40;;
27367;SDS011;14839;48.106;11.618;2023-08-21T11:24:39;3.95;;;3.20;;
27367;SDS011;14839;48.106;11.618;2023-08-21T11:27:10;3.50;;;3.20;;
27367;SDS011;14839;48.106;11.618;2023-08-21T11:29:38;3.10;;;2.80;;
27367;SDS011;14839;48.106;11.618;2023-08-21T11:32:08;3.53;;;3.17;;
27367;SDS011;14839;48.106;11.618;2023-08-21T11:34:53;5.15;;;3.28;;
27367;SDS011;14839;48.106;11.618;2023-08-21T11:37:20;2.95;;;2.63;;
27367;SDS011;14839;48.106;11.618;2023-08-21T11:39:54;4.03;;;3.20;;
27367;SDS011;14839;48.106;11.618;2023-08-21T11:42:22;4.72;;;3.28;;
27367;SDS011;14839;48.106;11.618;2023-08-21T11:44:53;4.95;;;3.15;;
27367;SDS011;14839;48.106;11.618;2023-08-21T11:47:20;3.78;;;3.35;;
27367;SDS011;14839;48.106;11.618;2023-08-21T11:49:46;3.67;;;3.17;;
27367;SDS011;14839;48.106;11.618;2023-08-21T11:52:17;6.65;;;3.00;;
27367;SDS011;14839;48.106;11.618;2023-08-21T11:54:50;4.32;;;3.00;;
27367;SDS011;14839;48.106;11.618;2023-08-21T11:57:16;4.70;;;3.13;;
27367;SDS011;14839;48.106;11.618;2023-08-21T11:59:43;4.60;;;3.25;;
27367;SDS011;14839;48.106;11.618;2023-08-21T12:02:14;4.47;;;3.38;;
27367;SDS011;14839;48.106;11.618;2023-08-21T12:04:42;3.35;;;3.03;;
27367;SDS011;14839;48.106;11.618;2023-08-21T12:07:08;3.22;;;2.92;;
27367;SDS011;14839;48.106;11.618;2023-08-21T12:09:34;3.15;;;2.80;;
27367;SDS011;14839;48.106;11.618;2023-08-21T12:12:00;3.80;;;2.90;;
27367;SDS011;14839;48.106;11.618;2023-08-21T12:14:26;5.80;;;2.90;;
27367;SDS011;14839;48.106;11.618;2023-08-21T12:16:52;3.70;;;3.35;;
27367;SDS011;14839;48.106;11.618;2023-08-21T12:19:19;5.63;;;3.30;;
27367;SDS011;14839;48.106;11.618;2023-08-21T12:21:46;4.25;;;3.10;;
27367;SDS011;14839;48.106;11.618;2023-08-21T12:24:12;7.22;;;3.50;;
27367;SDS011;14839;48.106;11.618;2023-08-21T12:26:37;5.35;;;3.55;;
27367;SDS011;14839;48.106;11.618;2023-08-21T12:29:03;6.13;;;3.17;;
27367;SDS011;14839;48.106;11.618;2023-08-21T12:31:29;4.03;;;3.38;;
27367;SDS011;14839;48.106;11.618;2023-08-21T12:33:55;7.03;;;3.42;;
27367;SDS011;14839;48.106;11.618;2023-08-21T12:36:21;3.30;;;3.00;;
27367;SDS011;14839;48.106;11.618;2023-08-21T12:38:46;2.92;;;2.72;;
27367;SDS011;14839;48.106;11.618;2023-08-21T12:41:12;3.97;;;3.38;;
27367;SDS011;14839;48.106;11.618;2023-08-21T12:43:38;5.35;;;4.00;;
27367;SDS011;14839;48.106;11.618;2023-08-21T12:46:04;5.90;;;4.32;;
27367;SDS011;14839;48.106;11.618;2023-08-21T12:48:30;4.03;;;3.05;;
27367;SDS011;14839;48.106;11.618;2023-08-21T12:50:55;5.93;;;3.70;;
27367;SDS011;14839;48.106;11.618;2023-08-21T12:53:21;3.95;;;3.38;;
27367;SDS011;14839;48.106;11.618;2023-08-21T12:55:46;7.07;;;3.63;;
27367;SDS011;14839;48.106;11.618;2023-08-21T12:58:13;5.13;;;3.67;;
27367;SDS011;14839;48.106;11.618;2023-08-21T13:00:39;3.42;;;2.97;;
27367;SDS011;14839;48.106;11.618;2023-08-21T13:03:05;5.15;;;3.17;;
27367;SDS011;14839;48.106;11.618;2023-08-21T13:05:30;4.10;;;3.25;;
27367;SDS011;14839;48.106;11.618;2023-08-21T13:07:56;4.80;;;3.30;;
27367;SDS011;14839;48.106;11.618;2023-08-21T13:10:22;6.00;;;3.80;;
27367;SDS011;14839;48.106;11.618;2023-08-21T13:12:47;5.30;;;3.50;;
27367;SDS011;14839;48.106;11.618;2023-08-21T13:15:14;4.07;;;2.85;;
27367;SDS011;14839;48.106;11.618;2023-08-21T13:17:39;3.55;;;2.92;;
27367;SDS011;14839;48.106;11.618;2023-08-21T13:20:05;3.40;;;3.10;;
27367;SDS011;14839;48.106;11.618;2023-08-21T13:22:50;5.97;;;4.05;;
27367;SDS011;14839;48.106;11.618;2023-08-21T13:25:17;4.68;;;2.97;;
27367;SDS011;14839;48.106;11.618;2023-08-21T13:27:45;4.10;;;3.38;;
27367;SDS011;14839;48.106;11.618;2023-08-21T13:30:11;4.55;;;2.63;;
27367;SDS011;14839;48.106;11.618;2023-08-21T13:32:37;4.25;;;3.25;;
27367;SDS011;14839;48.106;11.618;2023-08-21T13:35:03;6.80;;;3.30;;
27367;SDS011;14839;48.106;11.618;2023-08-21T13:37:33;4.90;;;3.33;;
27367;SDS011;14839;48.106;11.618;2023-08-21T13:40:03;3.45;;;3.15;;
27367;SDS011;14839;48.106;11.618;2023-08-21T13:42:39;4.15;;;3.30;;
27367;SDS011;14839;48.106;11.618;2023-08-21T13:45:06;5.40;;;3.42;;
27367;SDS011;14839;48.106;11.618;2023-08-21T13:47:34;4.35;;;3.05;;
27367;SDS011;14839;48.106;11.618;2023-08-21T13:50:00;3.85;;;3.05;;
27367;SDS011;14839;48.106;11.618;2023-08-21T13:52:25;4.10;;;2.65;;
27367;SDS011;14839;48.106;11.618;2023-08-21T13:54:51;7.63;;;3.72;;
27367;SDS011;14839;48.106;11.618;2023-08-21T13:57:17;4.78;;;3.17;;
27367;SDS011;14839;48.106;11.618;2023-08-21T13:59:42;3.78;;;3.30;;
27367;SDS011;14839;48.106;11.618;2023-08-21T14:02:08;3.28;;;2.97;;
27367;SDS011;14839;48.106;11.618;2023-08-21T14:04:33;3.58;;;3.05;;
27367;SDS011;14839;48.106;11.618;2023-08-21T14:06:59;3.90;;;2.97;;
27367;SDS011;14839;48.106;11.618;2023-08-21T14:09:24;4.10;;;3.55;;
27367;SDS011;14839;48.106;11.618;2023-08-21T14:11:50;7.05;;;3.65;;
27367;SDS011;14839;48.106;11.618;2023-08-21T14:14:15;5.03;;;3.05;;
27367;SDS011;14839;48.106;11.618;2023-08-21T14:16:41;5.05;;;3.30;;
27367;SDS011;14839;48.106;11.618;2023-08-21T14:19:06;3.90;;;3.50;;
27367;SDS011;14839;48.106;11.618;2023-08-21T14:21:32;3.58;;;3.17;;
27367;SDS011;14839;48.106;11.618;2023-08-21T14:23:58;3.35;;;2.90;;
27367;SDS011;14839;48.106;11.618;2023-08-21T14:26:23;3.95;;;3.25;;
27367;SDS011;14839;48.106;11.618;2023-08-21T14:28:49;3.80;;;3.08;;
27367;SDS011;14839;48.106;11.618;2023-08-21T14:31:16;4.15;;;3.60;;
27367;SDS011;14839;48.106;11.618;2023-08-21T14:33:42;6.07;;;3.40;;
27367;SDS011;14839;48.106;11.618;2023-08-21T14:36:08;3.53;;;3.10;;
27367;SDS011;14839;48.106;11.618;2023-08-21T14:38:33;5.47;;;3.40;;
27367;SDS011;14839;48.106;11.618;2023-08-21T14:40:59;5.68;;;3.30;;
27367;SDS011;14839;48.106;11.618;2023-08-21T14:43:25;3.47;;;3.10;;
27367;SDS011;14839;48.106;11.618;2023-08-21T14:45:51;5.57;;;3.20;;
27367;SDS011;14839;48.106;11.618;2023-08-21T14:48:17;3.22;;;2.92;;
27367;SDS011;14839;48.106;11.618;2023-08-21T14:50:42;5.43;;;3.45;;
27367;SDS011;14839;48.106;11.618;2023-08-21T14:53:08;4.22;;;3.40;;
27367;SDS011;14839;48.106;11.618;2023-08-21T14:55:34;5.90;;;3.70;;
27367;SDS011;14839;48.106;11.618;2023-08-21T14:57:59;5.57;;;3.35;;
27367;SDS011;14839;48.106;11.618;2023-08-21T15:00:30;4.20;;;3.30;;
27367;SDS011;14839;48.106;11.618;2023-08-21T15:02:56;4.95;;;3.90;;
27367;SDS011;14839;48.106;11.618;2023-08-21T15:05:21;3.67;;;3.38;;
27367;SDS011;14839;48.106;11.618;2023-08-21T15:07:48;5.72;;;3.58;;
27367;SDS011;14839;48.106;11.618;2023-08-21T15:10:14;5.05;;;3.53;;
27367;SDS011;14839;48.106;11.618;2023-08-21T15:12:39;6.35;;;4.13;;
27367;SDS011;14839;48.106;11.618;2023-08-21T15:15:05;4.72;;;3.70;;
27367;SDS011;14839;48.106;11.618;2023-08-21T15:17:31;4.22;;;3.50;;
27367;SDS011;14839;48.106;11.618;2023-08-21T15:19:57;4.40;;;3.97;;
27367;SDS011;14839;48.106;11.618;2023-08-21T15:22:22;4.35;;;3.50;;
27367;SDS011;14839;48.106;11.618;2023-08-21T15:24:48;4.50;;;3.65;;
27367;SDS011;14839;48.106;11.618;2023-08-21T15:27:13;5.15;;;3.67;;
27367;SDS011;14839;48.106;11.618;2023-08-21T15:29:41;5.78;;;3.65;;
27367;SDS011;14839;48.106;11.618;2023-08-21T15:32:06;5.60;;;3.50;;
27367;SDS011;14839;48.106;11.618;2023-08-21T15:34:32;5.50;;;3.72;;
27367;SDS011;14839;48.106;11.618;2023-08-21T15:36:58;4.35;;;3.95;;
27367;SDS011;14839;48.106;11.618;2023-08-21T15:39:23;8.10;;;3.92;;
27367;SDS011;14839;48.106;11.618;2023-08-21T15:41:49;6.28;;;3.85;;
27367;SDS011;14839;48.106;11.618;2023-08-21T15:44:14;5.38;;;4.53;;
27367;SDS011;14839;48.106;11.618;2023-08-21T15:46:40;8.38;;;4.40;;
27367;SDS011;14839;48.106;11.618;2023-08-21T15:49:09;5.43;;;4.25;;
27367;SDS011;14839;48.106;11.618;2023-08-21T15:51:35;4.00;;;3.60;;
27367;SDS011;14839;48.106;11.618;2023-08-21T15:54:00;6.70;;;3.65;;
27367;SDS011;14839;48.106;11.618;2023-08-21T15:56:26;3.65;;;3.35;;
27367;SDS011;14839;48.106;11.618;2023-08-21T15:58:53;6.68;;;3.90;;
27367;SDS011;14839;48.106;11.618;2023-08-21T16:01:18;4.20;;;3.65;;
27367;SDS011;14839;48.106;11.618;2023-08-21T16:03:44;4.28;;;3.65;;
27367;SDS011;14839;48.106;11.618;2023-08-21T16:06:10;5.38;;;3.85;;
27367;SDS011;14839;48.106;11.618;2023-08-21T16:08:35;4.53;;;3.60;;
27367;SDS011;14839;48.106;11.618;2023-08-21T16:11:01;4.38;;;3.55;;
27367;SDS011;14839;48.106;11.618;2023-08-21T16:13:28;4.00;;;3.35;;
27367;SDS011;14839;48.106;11.618;2023-08-21T16:15:55;3.75;;;3.42;;
27367;SDS011;14839;48.106;11.618;2023-08-21T16:18:21;4.53;;;3.47;;
27367;SDS011;14839;48.106;11.618;2023-08-21T16:20:47;4.30;;;3.90;;
27367;SDS011;14839;48.106;11.618;2023-08-21T16:23:12;5.45;;;3.45;;
27367;SDS011;14839;48.106;11.618;2023-08-21T16:25:38;5.28;;;3.63;;
27367;SDS011;14839;48.106;11.618;2023-08-21T16:28:04;4.47;;;3.65;;
27367;SDS011;14839;48.106;11.618;2023-08-21T16:30:29;6.20;;;3.58;;
27367;SDS011;14839;48.106;11.618;2023-08-21T16:32:55;5.70;;;4.10;;
27367;SDS011;14839;48.106;11.618;2023-08-21T16:35:21;3.92;;;3.53;;
27367;SDS011;14839;48.106;11.618;2023-08-21T16:37:47;4.20;;;3.38;;
27367;SDS011;14839;48.106;11.618;2023-08-21T16:40:13;5.47;;;3.70;;
27367;SDS011;14839;48.106;11.618;2023-08-21T16:42:38;3.90;;;3.50;;
27367;SDS011;14839;48.106;11.618;2023-08-21T16:45:04;5.47;;;3.53;;
27367;SDS011;14839;48.106;11.618;2023-08-21T16:47:31;6.05;;;3.17;;
27367;SDS011;14839;48.106;11.618;2023-08-21T16:49:56;4.85;;;3.90;;
27367;SDS011;14839;48.106;11.618;2023-08-21T16:52:22;4.43;;;3.55;;
27367;SDS011;14839;48.106;11.618;2023-08-21T16:54:48;4.88;;;3.88;;
27367;SDS011;14839;48.106;11.618;2023-08-21T16:57:13;3.90;;;3.50;;
27367;SDS011;14839;48.106;11.618;2023-08-21T16:59:39;4.20;;;3.55;;
27367;SDS011;14839;48.106;11.618;2023-08-21T17:02:05;6.05;;;3.65;;
27367;SDS011;14839;48.106;11.618;2023-08-21T17:04:30;3.90;;;3.55;;
27367;SDS011;14839;48.106;11.618;2023-08-21T17:06:56;4.75;;;3.55;;
27367;SDS011;14839;48.106;11.618;2023-08-21T17:09:22;5.90;;;3.50;;
27367;SDS011;14839;48.106;11.618;2023-08-21T17:11:48;4.32;;;3.38;;
27367;SDS011;14839;48.106;11.618;2023-08-21T17:14:13;4.68;;;3.35;;
27367;SDS011;14839;48.106;11.618;2023-08-21T17:16:39;4.75;;;3.38;;
27367;SDS011;14839;48.106;11.618;2023-08-21T17:19:05;5.75;;;3.60;;
27367;SDS011;14839;48.106;11.618;2023-08-21T17:21:30;8.77;;;3.65;;
27367;SDS011;14839;48.106;11.618;2023-08-21T17:23:56;5.30;;;3.50;;
27367;SDS011;14839;48.106;11.618;2023-08-21T17:26:21;4.30;;;3.65;;
27367;SDS011;14839;48.106;11.618;2023-08-21T17:28:47;5.07;;;3.47;;
27367;SDS011;14839;48.106;11.618;2023-08-21T17:31:13;4.13;;;3.72;;
27367;SDS011;14839;48.106;11.618;2023-08-21T17:33:39;6.60;;;3.22;;
27367;SDS011;14839;48.106;11.618;2023-08-21T17:36:04;3.63;;;3.33;;
27367;SDS011;14839;48.106;11.618;2023-08-21T17:38:30;4.07;;;3.63;;
27367;SDS011;14839;48.106;11.618;2023-08-21T17:40:56;4.22;;;3.15;;
27367;SDS011;14839;48.106;11.618;2023-08-21T17:43:21;5.22;;;4.00;;
27367;SDS011;14839;48.106;11.618;2023-08-21T17:45:47;3.67;;;3.17;;
27367;SDS011;14839;48.106;11.618;2023-08-21T17:48:12;6.85;;;3.30;;
27367;SDS011;14839;48.106;11.618;2023-08-21T17:50:38;4.13;;;3.72;;
27367;SDS011;14839;48.106;11.618;2023-08-21T17:53:04;4.10;;;3.60;;
27367;SDS011;14839;48.106;11.618;2023-08-21T17:55:29;3.72;;;3.22;;
27367;SDS011;14839;48.106;11.618;2023-08-21T17:57:58;3.75;;;3.20;;
27367;SDS011;14839;48.106;11.618;2023-08-21T18:00:25;4.97;;;3.38;;
27367;SDS011;14839;48.106;11.618;2023-08-21T18:02:50;4.47;;;3.78;;
27367;SDS011;14839;48.106;11.618;2023-08-21T18:05:16;3.83;;;3.50;;
27367;SDS011;14839;48.106;11.618;2023-08-21T18:07:42;6.72;;;3.70;;
27367;SDS011;14839;48.106;11.618;2023-08-21T18:10:08;6.32;;;3.78;;
27367;SDS011;14839;48.106;11.618;2023-08-21T18:12:35;5.10;;;3.75;;
27367;SDS011;14839;48.106;11.618;2023-08-21T18:15:01;3.35;;;2.90;;
27367;SDS011;14839;48.106;11.618;2023-08-21T18:17:28;3.55;;;3.00;;
27367;SDS011;14839;48.106;11.618;2023-08-21T18:19:53;4.95;;;3.58;;
27367;SDS011;14839;48.106;11.618;2023-08-21T18:22:19;6.30;;;3.80;;
27367;SDS011;14839;48.106;11.618;2023-08-21T18:24:45;4.63;;;3.25;;
27367;SDS011;14839;48.106;11.618;2023-08-21T18:27:11;5.53;;;3.17;;
27367;SDS011;14839;48.106;11.618;2023-08-21T18:29:40;3.92;;;3.30;;
27367;SDS011;14839;48.106;11.618;2023-08-21T18:32:06;6.15;;;3.63;;
27367;SDS011;14839;48.106;11.618;2023-08-21T18:34:36;3.42;;;3.13;;
27367;SDS011;14839;48.106;11.618;2023-08-21T18:37:05;5.18;;;4.00;;
27367;SDS011;14839;48.106;11.618;2023-08-21T18:39:32;4.63;;;4.15;;
27367;SDS011;14839;48.106;11.618;2023-08-21T18:41:57;6.57;;;4.43;;
27367;SDS011;14839;48.106;11.618;2023-08-21T18:44:23;6.75;;;4.05;;